Time;durP1;ratioP1;P1;durP2;ratioP2;P2;SDS_P1;SDS_P2;PMS_P1;PMS_P2;Temp;Humidity;BMP_temperature;BMP_pressure;BME280_temperature;BME280_humidity;BME280_pressure;Samples;Min_cycle;Max_cycle;Signal;HPM_P1;HPM_P2
2023/04/13 00:01:22;;;;;;;3.33;1.30;;;;;;;5.69;100.00;99366.19;4989451;28;20030;-74
2023/04/13 00:03:51;;;;;;;5.28;1.42;;;;;;;5.66;100.00;99362.03;4989141;28;20454;-75
2023/04/13 00:06:16;;;;;;;4.45;1.38;;;;;;;5.64;100.00;99348.28;4986473;28;20037;-75
2023/04/13 00:08:42;;;;;;;3.40;1.48;;;;;;;5.63;100.00;99349.22;4998848;28;20031;-75
2023/04/13 00:11:08;;;;;;;4.60;1.55;;;;;;;5.66;100.00;99341.16;4977656;28;20031;-75
2023/04/13 00:13:41;;;;;;;4.47;1.40;;;;;;;5.68;100.00;99348.03;4988885;28;20030;-75
2023/04/13 00:16:11;;;;;;;3.97;1.38;;;;;;;5.68;100.00;99338.44;4987237;28;20023;-74
2023/04/13 00:18:37;;;;;;;5.15;1.75;;;;;;;5.72;100.00;99344.25;4989585;28;20022;-75
2023/04/13 00:21:06;;;;;;;4.45;1.50;;;;;;;5.75;100.00;99346.59;4989986;28;20390;-75
2023/04/13 00:23:35;;;;;;;4.07;1.50;;;;;;;5.78;100.00;99338.53;5002952;28;20022;-75
2023/04/13 00:26:00;;;;;;;3.83;1.25;;;;;;;5.82;100.00;99351.22;4984919;28;20082;-75
2023/04/13 00:28:27;;;;;;;3.80;1.40;;;;;;;5.84;100.00;99348.50;4989564;28;20058;-75
2023/04/13 00:30:53;;;;;;;3.42;1.27;;;;;;;5.87;100.00;99340.41;4989170;28;20072;-74
2023/04/13 00:33:19;;;;;;;4.15;1.60;;;;;;;5.89;100.00;99335.91;4988946;28;20294;-74
2023/04/13 00:35:46;;;;;;;3.85;1.40;;;;;;;5.91;100.00;99339.25;4988406;28;20088;-74
2023/04/13 00:38:11;;;;;;;4.18;1.38;;;;;;;5.93;100.00;99342.56;4986352;28;20030;-74
2023/04/13 00:40:38;;;;;;;6.90;1.77;;;;;;;5.92;100.00;99331.31;4988773;28;20080;-74
2023/04/13 00:43:04;;;;;;;4.25;1.30;;;;;;;5.92;100.00;99341.75;4987413;28;20047;-76
2023/04/13 00:45:37;;;;;;;5.15;1.70;;;;;;;5.93;100.00;99347.78;4989738;28;20685;-76
2023/04/13 00:48:04;;;;;;;4.53;1.40;;;;;;;5.91;100.00;99344.47;4996573;28;20522;-76
2023/04/13 00:50:33;;;;;;;6.57;1.70;;;;;;;5.90;100.00;99358.47;4988493;28;20129;-74
2023/04/13 00:53:03;;;;;;;4.15;1.40;;;;;;;5.89;100.00;99351.56;4990919;28;20054;-74
2023/04/13 00:55:29;;;;;;;7.80;1.90;;;;;;;5.89;100.00;99342.00;4989353;28;20030;-77
2023/04/13 00:57:57;;;;;;;4.50;1.52;;;;;;;5.90;100.00;99343.66;4988177;28;20337;-75
2023/04/13 01:00:24;;;;;;;5.43;1.40;;;;;;;5.91;100.00;99347.09;4987925;28;20500;-75
2023/04/13 01:02:51;;;;;;;4.70;1.42;;;;;;;5.91;100.00;99336.66;5004361;28;20129;-74
2023/04/13 01:05:17;;;;;;;4.93;1.50;;;;;;;5.92;100.00;99346.13;4987551;28;20153;-74
2023/04/13 01:08:00;;;;;;;3.92;1.48;;;;;;;5.94;100.00;99339.00;4989919;28;20010;-75
2023/04/13 01:10:35;;;;;;;5.28;1.65;;;;;;;5.96;100.00;99361.44;5004651;28;20033;-74
2023/04/13 01:13:22;;;;;;;5.55;1.70;;;;;;;5.95;100.00;99346.72;4989340;28;20057;-74
2023/04/13 01:16:28;;;;;;;4.97;1.63;;;;;;;5.99;100.00;99344.69;4989916;28;20034;-75
2023/04/13 01:18:55;;;;;;;4.05;1.55;;;;;;;5.99;100.00;99342.09;4979879;28;20096;-76
2023/04/13 01:21:24;;;;;;;8.00;1.85;;;;;;;5.99;100.00;99342.09;4989481;28;20030;-77
2023/04/13 01:24:05;;;;;;;7.10;1.70;;;;;;;6.01;100.00;99344.59;4990647;28;20469;-78
2023/04/13 01:27:02;;;;;;;7.13;2.10;;;;;;;6.02;100.00;99349.69;4988728;28;20555;-76
2023/04/13 01:29:33;;;;;;;3.88;1.65;;;;;;;6.01;100.00;99350.66;4988467;28;20058;-74
2023/04/13 01:32:07;;;;;;;7.57;2.10;;;;;;;6.04;100.00;99350.41;4986657;28;20026;-77
2023/04/13 01:34:33;;;;;;;6.28;1.90;;;;;;;6.07;100.00;99352.78;4981660;28;20038;-74
2023/04/13 01:37:03;;;;;;;5.95;1.70;;;;;;;6.09;100.00;99355.25;4989749;28;20387;-76
2023/04/13 01:39:30;;;;;;;6.50;2.08;;;;;;;6.09;100.00;99358.72;4989875;28;20053;-76
2023/04/13 01:41:56;;;;;;;7.15;1.85;;;;;;;6.11;100.00;99363.81;4992909;28;20065;-76
2023/04/13 01:44:22;;;;;;;6.38;1.85;;;;;;;6.10;100.00;99373.41;4992241;28;20417;-76
2023/04/13 01:46:52;;;;;;;6.07;1.90;;;;;;;6.10;100.00;99386.47;4991209;28;20026;-75
2023/04/13 01:49:19;;;;;;;6.68;2.08;;;;;;;6.08;100.00;99372.72;4991393;28;20022;-76
2023/04/13 01:51:50;;;;;;;8.45;2.25;;;;;;;6.07;100.00;99378.88;4988090;28;20026;-73
2023/04/13 01:54:21;;;;;;;7.70;1.92;;;;;;;6.05;100.00;99385.19;4973382;28;20055;-76
2023/04/13 01:56:47;;;;;;;7.25;2.20;;;;;;;6.03;100.00;99382.69;4983037;28;20447;-75
2023/04/13 01:59:15;;;;;;;8.25;2.30;;;;;;;6.02;100.00;99388.88;4991096;28;20026;-75
2023/04/13 02:01:40;;;;;;;7.43;2.00;;;;;;;6.02;100.00;99396.69;4992026;28;20030;-75
2023/04/13 02:04:06;;;;;;;8.52;2.30;;;;;;;6.01;100.00;99405.47;4991557;28;20029;-75
2023/04/13 02:06:32;;;;;;;7.80;2.45;;;;;;;6.02;100.00;99401.09;4991854;28;20502;-75
2023/04/13 02:08:58;;;;;;;7.22;2.03;;;;;;;6.02;100.00;99409.75;4989539;28;20030;-75
2023/04/13 02:11:24;;;;;;;7.47;2.17;;;;;;;6.01;100.00;99417.69;4992113;28;20023;-74
2023/04/13 02:13:50;;;;;;;7.32;2.20;;;;;;;6.00;100.00;99409.00;4991680;28;20042;-74
2023/04/13 02:16:16;;;;;;;7.72;2.17;;;;;;;5.97;100.00;99427.53;4992368;28;20106;-74
2023/04/13 02:18:41;;;;;;;9.52;2.28;;;;;;;5.96;100.00;99421.47;4990712;28;20382;-74
2023/04/13 02:21:08;;;;;;;7.13;2.30;;;;;;;5.96;100.00;99433.69;4992463;28;20505;-74
2023/04/13 02:23:35;;;;;;;9.23;2.50;;;;;;;5.96;100.00;99436.31;4992609;28;20026;-74
2023/04/13 02:26:01;;;;;;;6.53;1.92;;;;;;;5.96;100.00;99437.13;4990774;28;20112;-74
2023/04/13 02:28:28;;;;;;;7.85;2.42;;;;;;;5.97;100.00;99443.19;4982682;28;20037;-74
2023/04/13 02:30:55;;;;;;;7.55;2.35;;;;;;;5.98;100.00;99448.28;4992193;28;20148;-74
2023/04/13 02:33:21;;;;;;;10.13;2.47;;;;;;;6.00;100.00;99448.16;4990766;28;20030;-74
2023/04/13 02:35:50;;;;;;;8.88;2.75;;;;;;;6.00;100.00;99453.38;5005033;28;20193;-74
2023/04/13 02:38:20;;;;;;;8.63;2.55;;;;;;;6.01;100.00;99447.25;4991391;28;20431;-74
2023/04/13 02:40:45;;;;;;;7.20;2.15;;;;;;;6.02;100.00;99454.13;4990759;28;20050;-74
2023/04/13 02:43:11;;;;;;;5.38;2.20;;;;;;;6.03;100.00;99458.41;4984857;28;20037;-74
2023/04/13 02:45:39;;;;;;;6.88;2.45;;;;;;;6.06;100.00;99460.78;4990257;28;20838;-74
2023/04/13 02:48:05;;;;;;;6.95;2.38;;;;;;;6.05;100.00;99466.13;4989756;28;20033;-75
2023/04/13 02:50:30;;;;;;;6.90;2.75;;;;;;;6.07;100.00;99474.66;4988892;28;20038;-74
2023/04/13 02:52:56;;;;;;;4.65;2.28;;;;;;;6.06;100.00;99486.88;4990787;28;20030;-75
2023/04/13 02:55:21;;;;;;;6.45;2.30;;;;;;;6.06;100.00;99484.28;4990881;28;20548;-74
2023/04/13 02:57:48;;;;;;;10.05;2.90;;;;;;;6.06;100.00;99481.66;4988389;28;20034;-75
2023/04/13 03:00:15;;;;;;;8.23;2.33;;;;;;;6.05;100.00;99487.00;4978551;28;20029;-75
2023/04/13 03:02:41;;;;;;;8.85;2.47;;;;;;;6.07;100.00;99514.66;4991144;28;20022;-74
2023/04/13 03:05:08;;;;;;;6.13;2.22;;;;;;;5.97;100.00;99511.88;4985361;28;20112;-74
2023/04/13 03:07:34;;;;;;;8.35;2.40;;;;;;;5.92;100.00;99510.59;4990126;28;20676;-74
2023/04/13 03:10:03;;;;;;;3.63;1.25;;;;;;;5.81;100.00;99515.75;4991059;28;20042;-75
2023/04/13 03:12:30;;;;;;;2.58;1.20;;;;;;;5.75;100.00;99518.84;4989330;28;20246;-74
2023/04/13 03:14:55;;;;;;;3.15;1.10;;;;;;;5.70;100.00;99529.63;4988835;28;20058;-75
2023/04/13 03:17:21;;;;;;;4.07;1.42;;;;;;;5.66;100.00;99521.19;4990148;28;20053;-75
2023/04/13 03:19:48;;;;;;;4.43;1.38;;;;;;;5.63;100.00;99526.66;4986136;28;20041;-74
2023/04/13 03:22:14;;;;;;;5.47;2.03;;;;;;;5.62;100.00;99532.81;4989609;28;20164;-75
2023/04/13 03:24:40;;;;;;;4.47;2.05;;;;;;;5.63;100.00;99529.25;4991589;28;20097;-75
2023/04/13 03:27:06;;;;;;;6.75;2.50;;;;;;;5.62;100.00;99527.59;5004839;28;20554;-74
2023/04/13 03:29:32;;;;;;;8.35;2.83;;;;;;;5.64;100.00;99545.75;4991418;28;20109;-74
2023/04/13 03:31:57;;;;;;;7.20;2.67;;;;;;;5.64;100.00;99541.34;4989702;28;20113;-74
2023/04/13 03:34:23;;;;;;;7.05;3.13;;;;;;;5.64;100.00;99543.97;4990430;28;20030;-74
2023/04/13 03:36:49;;;;;;;6.97;3.00;;;;;;;5.64;100.00;99557.00;4987439;28;20026;-75
2023/04/13 03:39:15;;;;;;;6.47;3.28;;;;;;;5.66;100.00;99556.91;4988304;28;20533;-74
2023/04/13 03:41:41;;;;;;;7.78;3.63;;;;;;;5.66;100.00;99560.34;4991382;28;20050;-74
2023/04/13 03:44:07;;;;;;;10.13;4.65;;;;;;;5.67;100.00;99561.16;4990704;28;20033;-74
2023/04/13 03:46:36;;;;;;;10.73;4.85;;;;;;;5.70;100.00;99562.72;4990465;28;20446;-74
2023/04/13 03:49:05;;;;;;;9.30;5.15;;;;;;;5.69;100.00;99564.50;4989810;28;20394;-74
2023/04/13 03:51:31;;;;;;;9.65;5.47;;;;;;;5.69;100.00;99568.88;4989432;28;20029;-74
2023/04/13 03:54:03;;;;;;;10.25;5.05;;;;;;;5.65;100.00;99574.34;4981572;28;20039;-74
2023/04/13 03:56:32;;;;;;;8.60;5.40;;;;;;;5.65;100.00;99578.72;4993978;28;20505;-74
2023/04/13 03:58:58;;;;;;;10.48;5.68;;;;;;;5.64;100.00;99588.31;4988134;28;20081;-74
2023/04/13 04:01:23;;;;;;;9.10;5.53;;;;;;;5.63;100.00;99581.44;4988175;28;20558;-74
2023/04/13 04:03:49;;;;;;;10.05;5.75;;;;;;;5.63;100.00;99586.66;4989269;28;20141;-74
2023/04/13 04:06:15;;;;;;;9.25;5.47;;;;;;;5.62;100.00;99587.59;4988758;28;20038;-74
2023/04/13 04:08:42;;;;;;;9.05;5.03;;;;;;;5.61;100.00;99593.78;4987453;28;20041;-74
2023/04/13 04:11:07;;;;;;;10.80;5.20;;;;;;;5.61;100.00;99601.59;4983597;28;20049;-74
2023/04/13 04:13:32;;;;;;;10.50;5.60;;;;;;;5.60;100.00;99597.31;4970770;28;20019;-75
2023/04/13 04:15:58;;;;;;;8.98;5.00;;;;;;;5.60;100.00;99607.75;4977455;28;20028;-74
2023/04/13 04:18:23;;;;;;;10.02;5.40;;;;;;;5.58;100.00;99617.44;4986376;28;20089;-75
2023/04/13 04:20:49;;;;;;;9.50;5.13;;;;;;;5.56;100.00;99624.56;4989554;28;20121;-73
2023/04/13 04:23:15;;;;;;;10.45;5.63;;;;;;;5.55;100.00;99629.88;4988872;28;20139;-74
2023/04/13 04:25:45;;;;;;;9.88;5.10;;;;;;;5.55;100.00;99630.72;4989112;28;20030;-74
2023/04/13 04:28:14;;;;;;;9.27;4.95;;;;;;;5.51;100.00;99628.44;4983638;28;20113;-74
2023/04/13 04:30:41;;;;;;;11.10;5.13;;;;;;;5.48;100.00;99628.66;4972207;28;20027;-74
2023/04/13 04:33:06;;;;;;;9.05;4.75;;;;;;;5.47;100.00;99638.28;4989172;28;20038;-74
2023/04/13 04:35:34;;;;;;;9.43;5.70;;;;;;;5.44;100.00;99643.72;4989082;28;20076;-74
2023/04/13 04:38:10;;;;;;;12.55;5.40;;;;;;;5.42;100.00;99650.81;4990557;28;20076;-74
2023/04/13 04:40:36;;;;;;;11.38;5.20;;;;;;;5.40;100.00;99646.66;5006151;28;20081;-74
2023/04/13 04:43:04;;;;;;;11.85;5.28;;;;;;;5.38;100.00;99659.81;4989557;28;20129;-74
2023/04/13 04:45:31;;;;;;;11.40;6.10;;;;;;;5.35;100.00;99657.41;4986956;28;20033;-74
2023/04/13 04:47:57;;;;;;;10.70;6.32;;;;;;;5.32;100.00;99657.63;4988257;28;20137;-74
2023/04/13 04:50:24;;;;;;;9.57;5.90;;;;;;;5.30;100.00;99656.91;4987596;28;20117;-74
2023/04/13 04:52:50;;;;;;;12.30;6.85;;;;;;;5.28;100.00;99667.47;4989600;28;20491;-74
2023/04/13 04:55:16;;;;;;;9.55;6.20;;;;;;;5.26;100.00;99671.94;5004173;28;20035;-74
2023/04/13 04:57:42;;;;;;;10.60;6.68;;;;;;;5.25;100.00;99669.47;4988121;28;20030;-74
2023/04/13 05:00:14;;;;;;;11.38;6.38;;;;;;;5.25;100.00;99674.66;4987504;28;20118;-74
2023/04/13 05:02:40;;;;;;;11.85;6.78;;;;;;;5.26;100.00;99676.34;4988567;28;20022;-75
2023/04/13 05:05:14;;;;;;;12.98;7.60;;;;;;;5.28;100.00;99674.44;4987966;28;20030;-75
2023/04/13 05:07:39;;;;;;;11.30;7.15;;;;;;;5.34;100.00;99679.22;4989311;28;20506;-75
2023/04/13 05:10:09;;;;;;;11.40;7.70;;;;;;;5.36;100.00;99682.56;4991726;28;20026;-75
2023/04/13 05:12:34;;;;;;;13.35;7.30;;;;;;;5.35;100.00;99684.34;4993189;28;20030;-75
2023/04/13 05:15:08;;;;;;;14.60;8.02;;;;;;;5.38;100.00;99679.84;4991199;28;20450;-75
2023/04/13 05:17:35;;;;;;;13.43;7.72;;;;;;;5.37;100.00;99684.22;4980060;28;20030;-75
2023/04/13 05:20:01;;;;;;;12.00;7.88;;;;;;;5.38;100.00;99669.41;4993234;28;20471;-75
2023/04/13 05:22:26;;;;;;;12.77;7.43;;;;;;;5.38;100.00;99683.28;4992148;28;20041;-75
2023/04/13 05:24:51;;;;;;;12.93;6.55;;;;;;;5.39;100.00;99686.72;4990345;28;20026;-75
2023/04/13 05:27:17;;;;;;;10.07;6.47;;;;;;;5.42;100.00;99691.72;4992895;28;20100;-75
2023/04/13 05:29:46;;;;;;;11.57;6.50;;;;;;;5.44;100.00;99700.25;4993174;28;20403;-75
2023/04/13 05:32:15;;;;;;;10.25;5.63;;;;;;;5.55;100.00;99693.34;4991004;28;20034;-74
2023/04/13 05:34:40;;;;;;;11.02;5.63;;;;;;;5.59;100.00;99700.00;4991779;28;20048;-74
2023/04/13 05:37:07;;;;;;;9.10;5.00;;;;;;;5.64;100.00;99700.53;4977759;28;20023;-74
2023/04/13 05:39:33;;;;;;;8.90;4.47;;;;;;;5.65;100.00;99709.19;4990648;28;20030;-76
2023/04/13 05:42:05;;;;;;;9.63;3.80;;;;;;;5.69;100.00;99707.19;4993272;28;20525;-77
2023/04/13 05:44:30;;;;;;;11.13;3.95;;;;;;;5.73;100.00;99712.06;4993237;28;20028;-74
2023/04/13 05:46:55;;;;;;;8.63;4.10;;;;;;;5.76;100.00;99719.66;4992139;28;20475;-75
2023/04/13 05:49:25;;;;;;;8.05;3.88;;;;;;;5.81;100.00;99729.78;5012267;28;20021;-77
2023/04/13 05:51:52;;;;;;;8.55;3.53;;;;;;;5.85;100.00;99726.00;5010203;28;20089;-74
2023/04/13 05:54:18;;;;;;;10.95;3.33;;;;;;;5.85;100.00;99726.00;4992319;28;20026;-74
2023/04/13 05:56:43;;;;;;;8.27;3.30;;;;;;;5.91;100.00;99730.81;4993567;28;20467;-74
2023/04/13 05:59:10;;;;;;;6.18;3.30;;;;;;;5.95;100.00;99733.06;4992784;28;20041;-73
2023/04/13 06:01:36;;;;;;;7.57;2.88;;;;;;;6.01;100.00;99747.50;4992003;28;20030;-74
2023/04/13 06:04:04;;;;;;;6.15;2.65;;;;;;;6.02;100.00;99757.00;4992954;28;20042;-74
2023/04/13 06:06:31;;;;;;;7.05;2.90;;;;;;;6.03;100.00;99757.81;4992451;28;20030;-74
2023/04/13 06:08:56;;;;;;;6.18;2.72;;;;;;;6.03;100.00;99756.03;4993366;28;20038;-76
2023/04/13 06:11:23;;;;;;;7.95;2.80;;;;;;;6.03;100.00;99771.72;4993433;28;20354;-74
2023/04/13 06:13:49;;;;;;;7.88;3.15;;;;;;;6.06;100.00;99781.09;4991649;28;20034;-74
2023/04/13 06:16:14;;;;;;;6.35;2.97;;;;;;;6.06;100.00;99776.72;5007495;28;20030;-74
2023/04/13 06:18:41;;;;;;;5.93;3.13;;;;;;;6.11;100.00;99782.44;4993142;28;20026;-76
2023/04/13 06:21:07;;;;;;;7.43;3.50;;;;;;;6.16;100.00;99782.91;4990699;28;20045;-74
2023/04/13 06:23:33;;;;;;;5.63;2.75;;;;;;;6.21;100.00;99779.97;4992411;28;20030;-74
2023/04/13 06:25:58;;;;;;;7.30;3.30;;;;;;;6.24;100.00;99780.56;4993044;28;20034;-74
2023/04/13 06:28:28;;;;;;;8.65;3.28;;;;;;;6.34;100.00;99790.34;5006015;28;20387;-74
2023/04/13 06:30:55;;;;;;;8.55;3.17;;;;;;;6.38;100.00;99789.16;4991554;28;20487;-74
2023/04/13 06:33:21;;;;;;;7.53;3.08;;;;;;;6.45;100.00;99795.63;4990369;28;20109;-76
2023/04/13 06:35:47;;;;;;;11.88;3.67;;;;;;;6.48;100.00;99793.63;4991648;28;20026;-74
2023/04/13 06:38:13;;;;;;;9.52;3.20;;;;;;;6.53;100.00;99806.34;4991906;28;20029;-75
2023/04/13 06:40:40;;;;;;;7.85;3.13;;;;;;;6.55;100.00;99809.69;4992368;28;20060;-75
2023/04/13 06:43:05;;;;;;;8.50;3.08;;;;;;;6.60;100.00;99807.56;4990925;28;20586;-75
2023/04/13 06:45:32;;;;;;;5.93;2.75;;;;;;;6.65;100.00;99812.44;4991257;28;20065;-75
2023/04/13 06:47:59;;;;;;;10.05;3.42;;;;;;;6.69;100.00;99822.56;4991679;28;20033;-75
2023/04/13 06:50:25;;;;;;;13.02;3.25;;;;;;;6.75;100.00;99824.72;4988357;28;20073;-75
2023/04/13 06:52:50;;;;;;;8.57;3.33;;;;;;;6.78;100.00;99821.03;4991285;28;20026;-75
2023/04/13 06:55:16;;;;;;;8.02;3.03;;;;;;;6.80;100.00;99824.34;4991920;28;20018;-75
2023/04/13 06:57:44;;;;;;;7.55;3.45;;;;;;;6.84;100.00;99831.88;4990701;28;20109;-75
2023/04/13 07:00:13;;;;;;;11.25;3.30;;;;;;;6.87;100.00;99836.06;4990368;28;20033;-75
2023/04/13 07:02:38;;;;;;;7.90;3.00;;;;;;;6.89;100.00;99835.00;4990192;28;20053;-75
2023/04/13 07:05:05;;;;;;;6.28;3.08;;;;;;;6.95;100.00;99838.09;4990983;28;20487;-75
2023/04/13 07:07:31;;;;;;;9.70;3.33;;;;;;;6.96;100.00;99844.97;4991913;28;20081;-75
2023/04/13 07:09:57;;;;;;;11.65;3.25;;;;;;;6.97;100.00;99846.66;4989564;28;20088;-75
2023/04/13 07:12:22;;;;;;;7.93;3.25;;;;;;;7.02;100.00;99854.97;4991901;28;20030;-75
2023/04/13 07:14:49;;;;;;;9.75;3.05;;;;;;;7.05;100.00;99854.75;4989556;28;20042;-74
2023/04/13 07:17:15;;;;;;;9.52;3.25;;;;;;;7.07;100.00;99868.53;4988865;28;20129;-75
2023/04/13 07:19:45;;;;;;;9.82;3.60;;;;;;;7.06;100.00;99870.31;4990286;28;20112;-75
2023/04/13 07:22:15;;;;;;;11.82;3.70;;;;;;;7.05;100.00;99880.91;4988236;28;20022;-73
2023/04/13 07:24:41;;;;;;;8.82;3.28;;;;;;;7.03;100.00;99878.41;5004273;28;20096;-76
2023/04/13 07:27:07;;;;;;;12.38;3.60;;;;;;;7.03;100.00;99885.41;5008577;28;20073;-73
2023/04/13 07:29:34;;;;;;;9.85;3.30;;;;;;;7.05;100.00;99886.13;5006257;28;20037;-74
2023/04/13 07:32:06;;;;;;;8.55;3.30;;;;;;;7.08;100.00;99896.34;4989863;28;20382;-74
2023/04/13 07:34:32;;;;;;;9.27;3.70;;;;;;;7.12;100.00;99893.41;4992007;28;20554;-74
2023/04/13 07:36:57;;;;;;;10.50;3.50;;;;;;;7.15;100.00;99905.41;5005354;28;20045;-76
2023/04/13 07:39:22;;;;;;;10.90;3.67;;;;;;;7.19;100.00;99906.84;5008493;28;20025;-73
2023/04/13 07:41:48;;;;;;;10.95;3.85;;;;;;;7.19;100.00;99906.84;5003324;28;20137;-73
2023/04/13 07:44:16;;;;;;;13.38;3.95;;;;;;;7.20;100.00;99912.00;5010314;28;20105;-75
2023/04/13 07:46:43;;;;;;;10.40;3.70;;;;;;;7.26;100.00;99920.31;5021072;28;20455;-74
2023/04/13 07:49:09;;;;;;;11.80;4.13;;;;;;;7.30;100.00;99919.16;4990155;28;20034;-75
2023/04/13 07:51:34;;;;;;;13.95;4.00;;;;;;;7.40;100.00;99920.09;4990353;28;20409;-74
2023/04/13 07:54:01;;;;;;;10.65;3.80;;;;;;;7.46;100.00;99928.31;4989257;28;20033;-77
2023/04/13 07:56:27;;;;;;;12.90;4.43;;;;;;;7.51;100.00;99931.44;4989197;28;20019;-77
2023/04/13 07:58:52;;;;;;;18.10;4.47;;;;;;;7.59;100.00;99937.84;4989440;28;20037;-77
2023/04/13 08:01:18;;;;;;;12.32;4.13;;;;;;;7.74;100.00;99934.09;4987848;28;20124;-77
2023/04/13 08:03:50;;;;;;;14.60;4.50;;;;;;;7.86;100.00;99936.59;4988431;28;20407;-74
2023/04/13 08:06:19;;;;;;;12.93;5.15;;;;;;;7.97;100.00;99938.38;4987417;28;20033;-77
2023/04/13 08:08:45;;;;;;;16.13;5.13;;;;;;;8.18;100.00;99947.19;4990624;28;20360;-76
2023/04/13 08:11:10;;;;;;;14.75;4.78;;;;;;;8.38;100.00;99947.41;4990482;28;20032;-75
2023/04/13 08:13:35;;;;;;;15.55;4.63;;;;;;;8.46;100.00;99950.28;5004083;28;20399;-76
2023/04/13 08:16:01;;;;;;;14.52;4.95;;;;;;;8.51;98.91;99953.38;4988240;28;20134;-75
2023/04/13 08:18:26;;;;;;;17.85;4.82;;;;;;;8.56;99.78;99956.47;4982054;28;20038;-77
2023/04/13 08:20:55;;;;;;;16.73;4.65;;;;;;;8.57;97.61;99976.47;4989564;28;20113;-75
2023/04/13 08:23:22;;;;;;;13.30;4.47;;;;;;;8.57;97.49;99970.41;4990072;28;20050;-77
2023/04/13 08:25:48;;;;;;;17.48;5.07;;;;;;;8.70;99.41;99981.56;4990115;28;20023;-75
2023/04/13 08:28:13;;;;;;;15.30;4.75;;;;;;;8.71;96.90;99972.75;5006606;28;20030;-75
2023/04/13 08:30:39;;;;;;;17.35;4.95;;;;;;;8.69;95.32;99982.53;5007102;28;20026;-75
2023/04/13 08:33:05;;;;;;;18.15;5.00;;;;;;;8.70;96.82;99979.78;4990289;28;20019;-75
2023/04/13 08:35:31;;;;;;;15.25;5.18;;;;;;;8.83;95.51;99987.53;4990237;28;20037;-77
2023/04/13 08:37:57;;;;;;;11.25;4.55;;;;;;;8.89;94.44;99994.06;4989513;28;20053;-75
2023/04/13 08:40:23;;;;;;;16.00;4.82;;;;;;;8.91;93.26;99997.38;4989224;28;20046;-77
2023/04/13 08:42:48;;;;;;;19.88;4.63;;;;;;;8.95;94.50;100004.06;4975816;28;20487;-75
2023/04/13 08:45:15;;;;;;;19.50;5.25;;;;;;;8.98;93.54;100009.88;4989126;28;20022;-75
2023/04/13 08:47:40;;;;;;;16.88;5.10;;;;;;;9.02;92.80;100013.91;4989866;28;20408;-75
2023/04/13 08:50:07;;;;;;;16.13;5.13;;;;;;;9.01;91.32;100022.75;4987686;28;20035;-76
2023/04/13 08:52:34;;;;;;;13.65;4.07;;;;;;;9.03;90.73;100020.00;4989763;28;20129;-76
2023/04/13 08:55:04;;;;;;;14.73;4.30;;;;;;;9.14;90.65;100032.25;5003249;28;20129;-75
2023/04/13 08:57:30;;;;;;;14.63;4.43;;;;;;;9.24;89.71;100036.66;4987743;28;20533;-75
2023/04/13 08:59:57;;;;;;;15.98;4.07;;;;;;;9.42;89.59;100040.38;4988803;28;20030;-76
2023/04/13 09:02:27;;;;;;;11.75;3.83;;;;;;;9.58;86.41;100044.38;4987647;28;20038;-75
2023/04/13 09:04:58;;;;;;;16.55;4.00;;;;;;;9.77;85.58;100044.53;4989272;28;20050;-75
2023/04/13 09:07:28;;;;;;;16.00;4.33;;;;;;;9.99;85.89;100052.25;4987319;28;20497;-75
2023/04/13 09:09:59;;;;;;;18.92;4.38;;;;;;;10.28;83.11;100054.25;4989064;28;20521;-75
2023/04/13 09:12:25;;;;;;;14.20;3.72;;;;;;;10.60;81.41;100049.69;4998595;28;20042;-77
2023/04/13 09:14:51;;;;;;;11.98;3.50;;;;;;;10.75;81.88;100057.19;4988900;28;20033;-77
2023/04/13 09:17:24;;;;;;;15.27;3.83;;;;;;;10.75;80.56;100067.72;4988636;28;20026;-77
2023/04/13 09:19:50;;;;;;;18.85;4.20;;;;;;;10.61;82.35;100061.88;4989123;28;20066;-77
2023/04/13 09:22:16;;;;;;;13.05;3.83;;;;;;;10.43;82.36;100066.09;5002911;28;20486;-77
2023/04/13 09:24:42;;;;;;;15.00;3.60;;;;;;;10.29;82.20;100067.25;4988073;28;20040;-73
2023/04/13 09:27:22;;;;;;;14.52;3.92;;;;;;;10.20;80.56;100082.97;4994709;28;20068;-74
2023/04/13 09:29:55;;;;;;;16.42;3.83;;;;;;;10.05;82.02;100091.19;4997368;28;20041;-74
2023/04/13 09:32:20;;;;;;;14.07;3.50;;;;;;;10.00;79.92;100080.19;5004163;28;20045;-74
2023/04/13 09:34:58;;;;;;;13.63;3.42;;;;;;;9.93;80.22;100097.44;5009626;28;20018;-74
2023/04/13 09:37:24;;;;;;;16.90;3.40;;;;;;;9.78;81.86;100103.16;5009319;28;20024;-74
2023/04/13 09:39:51;;;;;;;13.88;3.70;;;;;;;9.65;81.95;100098.91;5009554;28;20056;-75
2023/04/13 09:42:18;;;;;;;15.45;3.92;;;;;;;9.58;82.38;100107.38;5008616;28;20046;-75
2023/04/13 09:44:53;;;;;;;17.10;3.47;;;;;;;9.58;82.46;100105.59;4990569;28;20062;-75
2023/04/13 09:47:24;;;;;;;13.10;3.72;;;;;;;9.67;80.64;100122.41;4986494;28;20069;-73
2023/04/13 09:49:51;;;;;;;15.73;3.83;;;;;;;9.72;81.09;100121.09;4987405;28;20038;-75
2023/04/13 09:52:23;;;;;;;16.27;4.38;;;;;;;9.72;81.31;100125.50;4987007;28;20090;-75
2023/04/13 09:54:50;;;;;;;;;;;;;;;9.83;83.50;100138.59;4987651;28;20407;-75
2023/04/13 09:57:29;;;;;;;16.85;4.00;;;;;;;9.62;82.76;100143.81;4990988;28;19910;-75
2023/04/13 09:59:59;;;;;;;14.07;3.95;;;;;;;9.46;83.68;100145.16;4982272;28;20033;-74
2023/04/13 10:02:26;;;;;;;12.50;4.00;;;;;;;9.39;83.07;100142.19;4990066;28;20038;-74
2023/04/13 10:04:53;;;;;;;14.55;4.43;;;;;;;9.41;83.31;100151.63;4992687;28;20026;-74
2023/04/13 10:07:18;;;;;;;16.58;4.68;;;;;;;9.56;83.33;100161.84;4991180;28;20113;-74
2023/04/13 10:09:45;;;;;;;16.40;5.13;;;;;;;9.69;83.14;100162.53;4994910;28;20056;-74
2023/04/13 10:12:12;;;;;;;16.40;4.90;;;;;;;9.73;81.25;100169.19;4993453;28;20053;-74
2023/04/13 10:14:44;;;;;;;17.58;4.90;;;;;;;9.83;82.88;100169.28;4992591;28;20113;-74
2023/04/13 10:17:25;;;;;;;16.25;4.80;;;;;;;10.13;81.55;100168.56;4990599;28;20395;-75
2023/04/13 10:19:52;;;;;;;15.18;4.63;;;;;;;10.24;81.28;100173.78;5009535;28;20248;-75
2023/04/13 10:22:22;;;;;;;12.75;4.38;;;;;;;10.24;79.47;100179.03;4991117;28;20030;-75
2023/04/13 10:24:50;;;;;;;14.13;4.70;;;;;;;10.20;80.02;100188.13;4989962;28;20026;-75
2023/04/13 10:27:18;;;;;;;19.73;5.60;;;;;;;10.10;77.75;100187.22;4991604;28;20026;-75
2023/04/13 10:29:46;;;;;;;13.20;5.28;;;;;;;10.04;78.13;100192.03;4992952;28;20026;-75
2023/04/13 10:32:27;;;;;;;17.35;5.90;;;;;;;10.10;80.27;100187.22;4998484;28;20026;-75
2023/04/13 10:34:54;;;;;;;16.98;5.43;;;;;;;10.16;79.09;100192.78;4992182;28;20052;-75
2023/04/13 10:37:22;;;;;;;21.50;5.40;;;;;;;10.44;77.34;100201.06;4991887;28;20227;-74
2023/04/13 10:39:48;;;;;;;15.25;5.15;;;;;;;10.86;77.74;100199.22;4992352;28;20026;-74
2023/04/13 10:42:14;;;;;;;15.35;4.95;;;;;;;11.07;75.37;100202.63;4991395;28;20046;-74
2023/04/13 10:44:48;;;;;;;16.80;4.93;;;;;;;11.21;75.09;100204.09;4992418;28;20023;-74
2023/04/13 10:47:17;;;;;;;15.32;4.63;;;;;;;11.23;73.91;100208.25;4991975;28;20033;-74
2023/04/13 10:49:47;;;;;;;18.15;5.22;;;;;;;11.25;73.62;100203.69;4992078;28;20057;-74
2023/04/13 10:52:13;;;;;;;17.88;5.20;;;;;;;11.22;74.91;100209.22;4990918;28;20026;-75
2023/04/13 10:54:40;;;;;;;16.30;4.65;;;;;;;11.03;72.92;100219.66;4990118;28;20030;-75
2023/04/13 10:57:09;;;;;;;12.45;3.90;;;;;;;10.90;72.84;100224.31;4989724;28;20032;-75
2023/04/13 10:59:43;;;;;;;15.48;4.38;;;;;;;10.79;73.58;100229.63;4990679;28;20030;-75
2023/04/13 11:02:14;;;;;;;14.13;3.60;;;;;;;10.81;75.10;100246.16;4989557;28;20026;-75
2023/04/13 11:04:42;;;;;;;13.07;3.67;;;;;;;10.78;74.39;100241.97;4989627;28;20038;-75
2023/04/13 11:07:28;;;;;;;9.90;3.35;;;;;;;10.84;74.93;100235.38;4987337;28;20046;-74
2023/04/13 11:10:04;;;;;;;13.45;3.05;;;;;;;10.88;74.69;100247.31;4989150;28;20048;-75
2023/04/13 11:12:30;;;;;;;15.27;3.33;;;;;;;10.90;74.22;100248.00;4991073;28;20030;-76
2023/04/13 11:14:55;;;;;;;15.23;3.25;;;;;;;10.85;74.82;100252.81;4991465;28;20014;-76
2023/04/13 11:17:20;;;;;;;15.10;4.10;;;;;;;10.73;75.17;100259.09;4989004;28;20022;-76
2023/04/13 11:19:48;;;;;;;14.40;3.30;;;;;;;10.59;75.76;100260.25;4991244;28;20209;-76
2023/04/13 11:22:21;;;;;;;8.90;2.75;;;;;;;10.58;75.21;100261.22;4990355;28;20533;-76
2023/04/13 11:24:47;;;;;;;11.43;2.65;;;;;;;10.60;74.82;100259.31;4990561;28;20475;-76
2023/04/13 11:27:20;;;;;;;12.20;2.90;;;;;;;10.82;76.54;100263.63;4989412;28;20037;-76
2023/04/13 11:29:55;;;;;;;13.73;2.92;;;;;;;11.25;73.72;100255.53;4991715;28;20029;-77
2023/04/13 11:32:25;;;;;;;13.38;3.45;;;;;;;11.66;73.06;100253.72;4989147;28;20475;-76